createdAt,value
2018-12-29T08:29:02.575Z,71.43
2018-12-29T08:31:31.657Z,61.73
2018-12-29T08:34:00.703Z,70.50
2018-12-29T08:36:29.630Z,73.13
2018-12-29T08:38:58.574Z,83.73
2018-12-29T08:41:27.577Z,78.20
2018-12-29T08:43:56.595Z,68.53
2018-12-29T08:46:25.615Z,71.53
2018-12-29T08:48:54.518Z,69.70
2018-12-29T08:51:23.543Z,64.87
2018-12-29T08:53:53.478Z,74.03
2018-12-29T08:56:22.807Z,75.90
2018-12-29T08:58:52.142Z,71.00
2018-12-29T09:01:21.135Z,61.80
2018-12-29T09:03:50.069Z,62.93
2018-12-29T09:06:19.083Z,69.67
2018-12-29T09:08:48.150Z,67.33
2018-12-29T09:11:17.184Z,74.87
2018-12-29T09:13:46.142Z,52.63
2018-12-29T09:16:15.050Z,58.10
2018-12-29T09:18:49.708Z,46.17
2018-12-29T09:21:14.781Z,68.57
2018-12-29T09:23:43.703Z,53.50
2018-12-29T09:26:12.615Z,48.73
2018-12-29T09:28:41.680Z,47.80
2018-12-29T09:31:10.642Z,54.17
2018-12-29T09:33:39.648Z,43.57
2018-12-29T09:36:08.863Z,45.87
2018-12-29T09:38:37.818Z,59.10
2018-12-29T09:41:06.819Z,41.40
2018-12-29T09:43:36.036Z,39.63
2018-12-29T09:46:05.031Z,41.50
2018-12-29T09:48:34.031Z,28.37
2018-12-29T09:51:02.995Z,39.07
2018-12-29T09:53:31.945Z,35.53
2018-12-29T09:56:00.902Z,32.00
2018-12-29T09:58:29.902Z,27.73
2018-12-29T10:00:58.879Z,32.13
2018-12-29T10:03:27.887Z,33.50
2018-12-29T10:05:56.895Z,33.60
2018-12-29T10:08:25.887Z,31.70
2018-12-29T10:10:54.919Z,27.37
2018-12-29T10:13:23.931Z,29.10
2018-12-29T10:15:53.044Z,29.83
2018-12-29T10:18:22.051Z,25.33
2018-12-29T10:20:51.083Z,27.43
2018-12-29T10:23:20.081Z,26.00
2018-12-29T10:25:49.089Z,32.80
2018-12-29T10:28:18.214Z,24.30
2018-12-29T10:30:47.157Z,22.10
2018-12-29T10:33:16.371Z,28.40
2018-12-29T10:35:45.302Z,21.57
2018-12-29T10:38:14.241Z,25.27
2018-12-29T10:40:43.230Z,26.03
2018-12-29T10:43:12.740Z,25.97
2018-12-29T10:45:41.728Z,25.30
2018-12-29T10:48:10.640Z,21.40
2018-12-29T10:50:39.582Z,21.73
2018-12-29T10:53:08.518Z,23.67
2018-12-29T10:55:56.744Z,21.90
2018-12-29T10:58:25.809Z,24.50
2018-12-29T11:00:54.802Z,23.83
2018-12-29T11:03:23.840Z,21.00
2018-12-29T11:05:53.172Z,22.33
2018-12-29T11:08:22.082Z,27.73
2018-12-29T11:10:51.018Z,23.90
2018-12-29T11:13:20.010Z,24.40
2018-12-29T11:15:48.960Z,21.20
2018-12-29T11:18:17.890Z,26.23
2018-12-29T11:20:46.800Z,28.03
2018-12-29T11:23:15.707Z,27.23
2018-12-29T11:25:44.751Z,25.00
2018-12-29T11:28:13.665Z,29.60
2018-12-29T11:30:42.750Z,28.70
2018-12-29T11:33:11.674Z,25.97
2018-12-29T11:35:40.579Z,28.47
2018-12-29T11:38:09.564Z,24.90
2018-12-29T11:40:38.502Z,30.77
2018-12-29T11:43:07.437Z,24.43
2018-12-29T11:45:39.460Z,28.20
2018-12-29T11:48:08.379Z,24.50
2018-12-29T11:50:37.369Z,29.87
2018-12-29T11:53:06.417Z,27.83
2018-12-29T11:55:35.454Z,23.57
2018-12-29T11:58:04.452Z,24.93
2018-12-29T12:00:33.528Z,30.80
2018-12-29T12:03:02.541Z,24.13
2018-12-29T12:05:31.708Z,28.97
2018-12-29T12:08:00.775Z,27.33
2018-12-29T12:10:29.820Z,24.70
2018-12-29T12:12:58.886Z,23.17
2018-12-29T12:15:27.894Z,26.97
2018-12-29T12:18:06.416Z,29.20
2018-12-29T12:20:27.927Z,23.50
2018-12-29T12:22:56.909Z,24.20
2018-12-29T12:25:26.102Z,20.00
2018-12-29T12:27:55.385Z,22.87
2018-12-29T12:30:24.487Z,22.57
2018-12-29T12:32:53.508Z,25.50
2018-12-29T12:35:22.591Z,20.27
2018-12-29T12:37:51.678Z,22.17
2018-12-29T12:40:20.762Z,25.50
2018-12-29T12:42:50.050Z,28.93
2018-12-29T12:45:19.152Z,23.93
2018-12-29T12:47:48.324Z,27.37
2018-12-29T12:50:17.460Z,23.67
2018-12-29T12:52:46.451Z,19.83
2018-12-29T12:55:15.561Z,23.50
2018-12-29T12:57:44.551Z,23.50
2018-12-29T13:00:14.032Z,21.50
2018-12-29T13:02:43.041Z,19.90
2018-12-29T13:05:12.107Z,22.97
2018-12-29T13:07:41.379Z,20.87
2018-12-29T13:10:10.378Z,20.67
2018-12-29T13:12:39.511Z,27.40
2018-12-29T13:15:08.658Z,19.83
2018-12-29T13:17:37.665Z,19.03
2018-12-29T13:20:06.910Z,21.23
2018-12-29T13:22:36.053Z,23.53
2018-12-29T13:25:05.323Z,19.00
2018-12-29T13:27:34.390Z,27.87
2018-12-29T13:30:03.611Z,23.20
2018-12-29T13:32:32.637Z,25.50
2018-12-29T13:35:01.631Z,24.57
2018-12-29T13:37:30.602Z,19.50
2018-12-29T13:39:59.638Z,26.90
2018-12-29T13:42:28.879Z,24.27
2018-12-29T13:44:57.968Z,31.33
2018-12-29T13:47:27.271Z,24.77
2018-12-29T13:49:56.410Z,20.13
2018-12-29T13:52:25.530Z,26.27
2018-12-29T13:54:54.558Z,19.60
2018-12-29T13:57:23.547Z,22.60
2018-12-29T13:59:52.659Z,21.27
2018-12-29T14:02:21.675Z,27.03
2018-12-29T14:04:50.690Z,23.53
2018-12-29T14:07:19.675Z,27.27
2018-12-29T14:09:48.742Z,26.67
2018-12-29T14:12:17.646Z,21.83
2018-12-29T14:14:46.647Z,28.07
2018-12-29T14:17:15.751Z,25.37
2018-12-29T14:19:45.150Z,22.67
2018-12-29T14:22:14.146Z,28.93
2018-12-29T14:24:43.159Z,26.97
2018-12-29T14:27:12.411Z,22.97
2018-12-29T14:29:41.427Z,23.60
2018-12-29T14:32:10.450Z,29.63
2018-12-29T14:34:39.674Z,21.50
2018-12-29T14:37:08.839Z,23.37
2018-12-29T14:39:37.870Z,21.53
2018-12-29T14:42:06.869Z,24.83
2018-12-29T14:44:35.858Z,23.27
2018-12-29T14:47:04.934Z,26.83
2018-12-29T14:49:33.918Z,21.00
2018-12-29T14:52:03.143Z,21.17
2018-12-29T14:54:32.147Z,22.23
2018-12-29T14:57:01.153Z,30.00
2018-12-29T14:59:30.134Z,24.57
2018-12-29T15:01:59.148Z,29.40
2018-12-29T15:04:28.293Z,29.97
2018-12-29T15:06:57.441Z,28.37
2018-12-29T15:09:26.438Z,31.00
2018-12-29T15:11:55.504Z,27.17
2018-12-29T15:14:24.794Z,28.27
2018-12-29T15:16:54.275Z,32.93
2018-12-29T15:19:23.639Z,29.33
2018-12-29T15:21:53.011Z,29.80
2018-12-29T15:24:22.752Z,24.40
2018-12-29T15:26:52.165Z,31.37
2018-12-29T15:29:23.561Z,28.40
2018-12-29T15:31:52.798Z,29.30
2018-12-29T15:34:22.026Z,27.63
2018-12-29T15:36:51.105Z,31.50
2018-12-29T15:39:20.415Z,29.23
2018-12-29T15:41:49.414Z,28.97
2018-12-29T15:44:18.485Z,23.40
2018-12-29T15:46:47.603Z,30.33
2018-12-29T15:49:16.679Z,29.20
2018-12-29T15:51:47.175Z,32.00
2018-12-29T15:54:16.178Z,28.87
2018-12-29T15:56:45.169Z,30.37
2018-12-29T15:59:14.247Z,33.80
2018-12-29T16:01:43.258Z,32.10
2018-12-29T16:04:12.271Z,34.50
2018-12-29T16:06:41.388Z,29.77
2018-12-29T16:09:10.426Z,38.43
2018-12-29T16:11:40.119Z,32.23
2018-12-29T16:14:09.291Z,26.93
2018-12-29T16:16:38.589Z,25.53
2018-12-29T16:19:07.658Z,30.27
2018-12-29T16:21:36.642Z,20.17
2018-12-29T16:24:05.834Z,25.40
2018-12-29T16:26:34.869Z,30.17
2018-12-29T16:29:03.937Z,29.40
2018-12-29T16:31:32.950Z,26.30
2018-12-29T16:34:02.019Z,29.43
2018-12-29T16:36:31.426Z,31.43
2018-12-29T16:39:00.505Z,32.00
2018-12-29T16:41:29.496Z,27.43
2018-12-29T16:43:58.802Z,30.87
2018-12-29T16:46:28.098Z,30.37
2018-12-29T16:48:57.087Z,30.33
2018-12-29T16:51:26.075Z,26.47
2018-12-29T16:53:56.044Z,26.70
2018-12-29T16:56:25.038Z,31.30
2018-12-29T16:58:54.030Z,27.67
2018-12-29T17:01:23.027Z,26.07
2018-12-29T17:03:52.099Z,26.43
2018-12-29T17:06:21.078Z,30.60
2018-12-29T17:08:50.098Z,35.13
2018-12-29T17:11:19.084Z,27.90
2018-12-29T17:13:48.540Z,28.53
2018-12-29T17:16:17.521Z,26.53
2018-12-29T17:18:46.664Z,27.30
2018-12-29T17:21:15.670Z,23.73
2018-12-29T17:23:44.823Z,37.33
2018-12-29T17:26:13.896Z,30.00
2018-12-29T17:28:42.897Z,28.77
2018-12-29T17:31:12.233Z,22.47
2018-12-29T17:33:41.214Z,24.40
2018-12-29T17:36:10.632Z,24.77
2018-12-29T17:38:39.665Z,24.10
2018-12-29T17:41:09.164Z,24.00
2018-12-29T17:43:38.217Z,25.97
2018-12-29T17:46:07.223Z,27.00
2018-12-29T17:48:36.291Z,29.97
2018-12-29T17:51:05.378Z,22.33
2018-12-29T17:53:34.707Z,23.37
2018-12-29T17:56:03.747Z,27.63
2018-12-29T17:58:32.914Z,30.07
2018-12-29T18:01:02.014Z,24.20
2018-12-29T18:03:31.001Z,25.97
2018-12-29T18:06:00.371Z,27.40
2018-12-29T18:08:29.477Z,27.83
2018-12-29T18:10:58.435Z,31.93
2018-12-29T18:13:27.806Z,36.03
2018-12-29T18:15:56.820Z,29.80
2018-12-29T18:18:25.824Z,27.57
2018-12-29T18:20:54.862Z,28.57
2018-12-29T18:23:23.868Z,31.03
2018-12-29T18:25:53.191Z,24.87
2018-12-29T18:28:22.180Z,29.47
2018-12-29T18:30:51.214Z,26.83
2018-12-29T18:33:20.533Z,30.20
2018-12-29T18:35:49.547Z,28.93
2018-12-29T18:38:18.577Z,30.37
2018-12-29T18:40:47.663Z,32.57
2018-12-29T18:43:16.649Z,32.30
2018-12-29T18:45:45.735Z,27.77
2018-12-29T18:48:15.786Z,24.40
2018-12-29T18:50:44.783Z,35.50
2018-12-29T18:53:13.875Z,31.10
2018-12-29T18:55:42.899Z,29.27
2018-12-29T18:58:11.904Z,28.77
2018-12-29T19:00:40.922Z,34.43
2018-12-29T19:03:10.943Z,28.63
2018-12-29T19:05:40.111Z,30.50
2018-12-29T19:08:09.287Z,40.43
2018-12-29T19:10:38.331Z,31.30
2018-12-29T19:13:07.902Z,35.67
2018-12-29T19:15:37.368Z,31.10
2018-12-29T19:18:06.446Z,30.30
2018-12-29T19:20:35.832Z,33.50
2018-12-29T19:23:05.314Z,31.97
2018-12-29T19:25:34.372Z,33.57
2018-12-29T19:28:03.760Z,31.63
2018-12-29T19:30:33.798Z,38.67
2018-12-29T19:33:03.350Z,36.43
2018-12-29T19:35:32.665Z,39.07
2018-12-29T19:38:02.121Z,34.67
2018-12-29T19:40:31.959Z,35.97
2018-12-29T19:43:01.460Z,46.00
2018-12-29T19:45:30.735Z,43.20
2018-12-29T19:48:00.309Z,38.40
2018-12-29T19:50:29.980Z,36.13
2018-12-29T19:52:59.632Z,44.13
2018-12-29T19:55:28.691Z,33.13
2018-12-29T19:57:57.987Z,46.50
2018-12-29T20:00:27.305Z,43.10
2018-12-29T20:02:56.405Z,43.13
2018-12-29T20:05:25.682Z,43.60
2018-12-29T20:07:54.788Z,40.50
2018-12-29T20:10:23.938Z,40.67
2018-12-29T20:12:53.199Z,42.10
2018-12-29T20:15:22.389Z,51.40
2018-12-29T20:17:51.489Z,45.37
2018-12-29T20:20:20.579Z,55.10
2018-12-29T20:22:49.598Z,51.57
2018-12-29T20:25:18.948Z,42.93
2018-12-29T20:27:49.909Z,43.70
2018-12-29T20:30:18.993Z,42.27
2018-12-29T20:32:48.006Z,45.63
2018-12-29T20:35:17.095Z,47.17
2018-12-29T20:37:46.179Z,50.50
2018-12-29T20:40:15.311Z,39.53
2018-12-29T20:42:44.468Z,40.87
2018-12-29T20:45:13.744Z,45.77
2018-12-29T20:47:42.737Z,48.90
2018-12-29T20:50:11.823Z,47.70
2018-12-29T20:52:41.527Z,58.93
2018-12-29T20:55:10.590Z,52.37
2018-12-29T20:57:39.589Z,53.63
2018-12-29T21:00:10.155Z,54.73
2018-12-29T21:02:39.199Z,57.53
2018-12-29T21:05:08.675Z,46.40
2018-12-29T21:07:37.770Z,54.70
2018-12-29T21:10:08.943Z,57.03
2018-12-29T21:12:37.938Z,53.90
2018-12-29T21:15:07.152Z,48.70
2018-12-29T21:17:36.207Z,58.87
2018-12-29T21:20:05.789Z,52.37
2018-12-29T21:22:34.914Z,49.37
2018-12-29T21:25:04.378Z,50.97
2018-12-29T21:27:33.462Z,53.33
2018-12-29T21:30:02.551Z,45.80
2018-12-29T21:32:31.570Z,45.10
2018-12-29T21:35:00.692Z,53.20
2018-12-29T21:37:29.779Z,52.63
2018-12-29T21:39:58.822Z,55.47
2018-12-29T21:42:27.911Z,50.40
2018-12-29T21:44:57.241Z,49.00
2018-12-29T21:47:26.256Z,49.73
2018-12-29T21:49:55.256Z,48.23
2018-12-29T21:52:24.370Z,50.00
2018-12-29T21:54:53.451Z,52.40
2018-12-29T21:57:22.906Z,45.17
2018-12-29T21:59:52.348Z,47.53
2018-12-29T22:02:21.534Z,45.97
2018-12-29T22:04:50.771Z,51.83
2018-12-29T22:07:20.007Z,41.60
2018-12-29T22:09:49.429Z,44.70
2018-12-29T22:12:18.708Z,48.00
2018-12-29T22:14:48.058Z,42.60
2018-12-29T22:17:17.547Z,48.70
2018-12-29T22:19:46.775Z,42.80
2018-12-29T22:22:16.162Z,45.57
2018-12-29T22:24:45.788Z,57.07
2018-12-29T22:27:15.087Z,45.03
2018-12-29T22:29:44.334Z,45.83
2018-12-29T22:32:13.560Z,46.60
2018-12-29T22:34:42.932Z,46.60
2018-12-29T22:37:12.560Z,47.20
2018-12-29T22:39:41.985Z,52.10
2018-12-29T22:42:11.352Z,48.77
2018-12-29T22:44:40.577Z,50.50
2018-12-29T22:47:09.879Z,53.30
2018-12-29T22:49:39.489Z,45.67
2018-12-29T22:52:08.754Z,44.33
2018-12-29T22:54:38.308Z,51.03
2018-12-29T22:57:07.563Z,56.77
2018-12-29T22:59:36.972Z,45.03
